Time;durP1;ratioP1;P1;durP2;ratioP2;P2;SDS_P1;SDS_P2;PMS_P1;PMS_P2;Temp;Humidity;BMP_temperature;BMP_pressure;BME280_temperature;BME280_humidity;BME280_pressure;Samples;Min_cycle;Max_cycle;Signal;HPM_P1;HPM_P2
2022/01/20 00:00:44;;;;;;;2.78;1.67;;;8.40;96.20;;;;;;5061685;28;20116;-48
2022/01/20 00:03:14;;;;;;;0.40;0.40;;;8.40;96.20;;;;;;5060777;28;20036;-48
2022/01/20 00:27:06;;;;;;;2.40;1.70;;;8.40;96.20;;;;;;5059112;28;20475;-48
2022/01/20 00:29:51;;;;;;;4.82;2.65;;;8.40;96.10;;;;;;5063908;28;20445;-48
2022/01/20 00:32:19;;;;;;;2.88;1.65;;;8.40;96.20;;;;;;5056981;28;20021;-48
2022/01/20 00:35:11;;;;;;;3.95;2.20;;;8.40;96.10;;;;;;5057919;28;20033;-48
2022/01/20 00:37:37;;;;;;;3.17;1.75;;;8.40;96.10;;;;;;5056013;28;20425;-48
2022/01/20 00:40:04;;;;;;;4.50;2.60;;;8.40;96.20;;;;;;5062591;28;20079;-48
2022/01/20 00:42:29;;;;;;;4.03;1.30;;;8.40;96.20;;;;;;5061652;28;20021;-48
2022/01/20 00:44:55;;;;;;;5.72;2.28;;;8.40;96.10;;;;;;5062974;28;20032;-48
2022/01/20 00:47:21;;;;;;;3.58;1.75;;;8.40;96.20;;;;;;5058192;28;20040;-48
2022/01/20 00:49:46;;;;;;;2.85;1.90;;;8.40;96.10;;;;;;5059172;28;20028;-48
2022/01/20 00:52:12;;;;;;;3.00;1.70;;;8.40;96.20;;;;;;5058039;28;20037;-48
2022/01/20 00:54:38;;;;;;;3.42;1.88;;;8.40;96.20;;;;;;5064598;28;20338;-48
2022/01/20 00:57:04;;;;;;;4.18;2.08;;;8.40;96.20;;;;;;5061203;28;20463;-48
2022/01/20 00:59:30;;;;;;;6.38;2.55;;;8.40;96.20;;;;;;5061097;28;20079;-48
2022/01/20 01:02:01;;;;;;;4.30;2.15;;;8.40;96.20;;;;;;5057304;28;20029;-48
2022/01/20 01:04:27;;;;;;;4.88;2.05;;;8.40;96.20;;;;;;5056904;28;20039;-48
2022/01/20 01:07:29;;;;;;;2.72;2.05;;;8.40;96.20;;;;;;5055526;28;20024;-48
2022/01/20 01:09:55;;;;;;;2.95;1.58;;;8.40;96.20;;;;;;5057110;28;20527;-48
2022/01/20 01:12:36;;;;;;;7.05;2.45;;;8.40;96.30;;;;;;5060333;28;20108;-48
2022/01/20 01:15:07;;;;;;;4.18;2.03;;;8.40;96.30;;;;;;5058239;28;20045;-48
2022/01/20 01:20:20;;;;;;;3.00;2.13;;;8.40;96.30;;;;;;5058053;28;20292;-48
2022/01/20 01:22:46;;;;;;;4.05;1.48;;;8.40;96.30;;;;;;5057828;28;20471;-48
2022/01/20 01:25:12;;;;;;;5.88;2.03;;;8.40;96.30;;;;;;5056834;28;20013;-48
2022/01/20 01:27:40;;;;;;;4.30;2.15;;;8.40;96.40;;;;;;5063712;28;20124;-48
2022/01/20 01:30:22;;;;;;;6.90;2.13;;;8.40;96.40;;;;;;5058858;28;20029;-48
2022/01/20 01:32:51;;;;;;;6.40;2.60;;;8.40;96.40;;;;;;5056619;28;20264;-48
2022/01/20 01:35:20;;;;;;;3.55;1.90;;;8.40;96.70;;;;;;5058472;28;20128;-48
2022/01/20 01:40:21;;;;;;;5.38;2.72;;;8.40;96.40;;;;;;5060702;28;20361;-48
2022/01/20 01:42:50;;;;;;;2.85;1.88;;;8.40;96.40;;;;;;5056916;28;20021;-48
2022/01/20 01:45:19;;;;;;;3.92;2.70;;;8.40;96.50;;;;;;5058267;28;20286;-48
2022/01/20 01:47:45;;;;;;;4.28;1.98;;;8.40;96.40;;;;;;5063629;28;20433;-48
2022/01/20 01:50:11;;;;;;;4.32;2.22;;;8.40;96.50;;;;;;5059212;28;20064;-48
2022/01/20 01:52:37;;;;;;;3.92;2.30;;;8.40;96.50;;;;;;5055868;28;20068;-48
2022/01/20 01:55:03;;;;;;;4.13;2.10;;;8.40;96.50;;;;;;5058609;28;20021;-48
2022/01/20 01:57:29;;;;;;;2.97;1.90;;;8.40;96.40;;;;;;5060082;28;20033;-48
2022/01/20 01:59:55;;;;;;;7.63;2.35;;;8.40;96.50;;;;;;5057965;28;20505;-48
2022/01/20 02:02:21;;;;;;;4.22;1.92;;;8.40;96.50;;;;;;5053994;28;20327;-48
2022/01/20 02:04:48;;;;;;;3.60;2.28;;;8.40;96.50;;;;;;5059284;28;20480;-48
2022/01/20 02:18:23;;;;;;;3.08;1.40;;;8.40;96.50;;;;;;5063491;28;20048;-48
2022/01/20 02:20:45;;;;;;;2.85;1.75;;;8.40;96.60;;;;;;5059140;28;20029;-48
2022/01/20 02:23:11;;;;;;;2.25;1.73;;;8.40;96.60;;;;;;5054962;28;20042;-48
2022/01/20 02:25:37;;;;;;;3.08;1.58;;;8.30;96.50;;;;;;5058565;28;20029;-48
2022/01/20 02:28:09;;;;;;;3.38;2.08;;;8.40;96.60;;;;;;5060279;28;20029;-48
2022/01/20 02:30:36;;;;;;;2.33;1.73;;;8.30;96.60;;;;;;5060038;28;20453;-48
2022/01/20 02:33:07;;;;;;;10.23;2.20;;;8.40;96.60;;;;;;5055803;28;20061;-48
2022/01/20 02:35:37;;;;;;;4.07;1.98;;;8.30;96.60;;;;;;5059676;28;20349;-48
2022/01/20 02:45:52;;;;;;;3.78;2.08;;;8.30;96.60;;;;;;5058715;28;20472;-48
2022/01/20 02:48:17;;;;;;;3.42;2.20;;;8.30;96.60;;;;;;5056850;28;20052;-48
2022/01/20 02:50:43;;;;;;;3.70;1.95;;;8.30;96.70;;;;;;5058573;28;20024;-48
2022/01/20 02:53:09;;;;;;;4.75;2.17;;;8.30;96.70;;;;;;5054255;28;20091;-48
2022/01/20 02:55:35;;;;;;;3.38;1.90;;;8.30;96.60;;;;;;5057720;28;20032;-49
2022/01/20 02:58:00;;;;;;;1.88;1.45;;;8.30;96.70;;;;;;5053872;28;20072;-48
2022/01/20 03:00:27;;;;;;;1.88;1.48;;;8.30;96.70;;;;;;5055802;28;20024;-48
2022/01/20 03:02:52;;;;;;;1.48;1.10;;;8.30;96.70;;;;;;5057155;28;20040;-48
2022/01/20 03:05:18;;;;;;;2.78;1.85;;;8.30;96.60;;;;;;5057571;28;20040;-48
2022/01/20 03:07:45;;;;;;;3.10;1.30;;;8.30;96.70;;;;;;5051004;28;20116;-48
2022/01/20 03:10:11;;;;;;;1.83;1.38;;;8.30;96.70;;;;;;5055580;28;20092;-48
2022/01/20 03:12:37;;;;;;;3.80;2.00;;;8.30;96.70;;;;;;5054877;28;20147;-48
2022/01/20 03:15:03;;;;;;;3.08;1.98;;;8.30;96.70;;;;;;5050955;28;20017;-48
2022/01/20 03:17:30;;;;;;;3.35;1.98;;;8.30;96.70;;;;;;5063104;28;20021;-48
2022/01/20 03:19:56;;;;;;;2.13;1.52;;;8.30;97.00;;;;;;5057629;28;20516;-48
2022/01/20 03:22:21;;;;;;;0.90;0.60;;;8.30;96.80;;;;;;5056358;28;20029;-48
2022/01/20 03:24:47;;;;;;;2.17;1.33;;;8.30;96.80;;;;;;5060941;28;20532;-48
2022/01/20 03:27:13;;;;;;;7.00;1.65;;;8.30;96.80;;;;;;5056544;28;20136;-48
2022/01/20 03:29:38;;;;;;;3.78;1.92;;;8.30;96.80;;;;;;5058193;28;20116;-49
2022/01/20 03:32:04;;;;;;;5.03;2.33;;;8.30;96.80;;;;;;5059368;28;20031;-48
2022/01/20 03:34:30;;;;;;;3.50;1.73;;;8.30;96.80;;;;;;5059570;28;20077;-48
2022/01/20 03:36:55;;;;;;;3.15;1.58;;;8.30;96.80;;;;;;5055259;28;20033;-48
2022/01/20 03:39:21;;;;;;;3.50;1.58;;;8.30;96.80;;;;;;5055500;28;20583;-48
2022/01/20 03:41:47;;;;;;;2.58;1.40;;;8.30;96.80;;;;;;5056765;28;20009;-49
2022/01/20 03:44:13;;;;;;;4.40;2.47;;;8.30;96.90;;;;;;5052663;28;20029;-48
2022/01/20 03:46:38;;;;;;;5.82;1.90;;;8.30;96.80;;;;;;5057825;28;20021;-48
2022/01/20 03:49:11;;;;;;;3.05;1.60;;;8.30;96.80;;;;;;5061322;28;20058;-48
2022/01/20 03:51:37;;;;;;;4.78;2.00;;;8.30;96.80;;;;;;5058775;28;20075;-48
2022/01/20 03:54:05;;;;;;;2.03;1.45;;;8.30;96.90;;;;;;5055322;28;20025;-48
2022/01/20 03:56:32;;;;;;;2.78;2.00;;;8.30;96.90;;;;;;5058736;28;20024;-48
2022/01/20 03:58:57;;;;;;;3.58;2.25;;;8.30;96.90;;;;;;5060825;28;20055;-48
2022/01/20 04:01:23;;;;;;;5.03;1.88;;;8.30;96.90;;;;;;5058326;28;20429;-48
2022/01/20 04:03:49;;;;;;;3.25;1.55;;;8.30;96.90;;;;;;5055652;28;20241;-48
2022/01/20 04:06:15;;;;;;;3.72;2.00;;;8.30;96.90;;;;;;5055303;28;20055;-48
2022/01/20 04:08:43;;;;;;;3.60;2.15;;;8.30;96.90;;;;;;5055135;28;20029;-48
2022/01/20 04:11:15;;;;;;;3.55;2.17;;;8.30;96.90;;;;;;5057729;28;20047;-48
2022/01/20 04:13:41;;;;;;;3.78;1.52;;;8.30;96.90;;;;;;5057905;28;20124;-48
2022/01/20 04:16:14;;;;;;;3.22;1.80;;;8.30;96.90;;;;;;5058539;28;20216;-48
2022/01/20 04:18:51;;;;;;;3.40;1.83;;;8.30;96.90;;;;;;5055359;28;20052;-48
2022/01/20 04:21:19;;;;;;;1.83;1.52;;;8.30;97.00;;;;;;5054060;28;20037;-48
2022/01/20 04:23:45;;;;;;;4.10;2.20;;;8.30;97.00;;;;;;5055014;28;20060;-48
2022/01/20 04:26:10;;;;;;;5.18;2.30;;;8.30;97.00;;;;;;5059447;28;20397;-48
2022/01/20 04:28:36;;;;;;;3.10;2.17;;;8.30;97.00;;;;;;5058273;28;20035;-48
2022/01/20 04:31:01;;;;;;;3.08;2.30;;;8.30;97.00;;;;;;5053423;28;20029;-49
2022/01/20 04:33:27;;;;;;;1.88;1.58;;;8.30;97.00;;;;;;5062339;28;20040;-48
2022/01/20 04:35:53;;;;;;;3.67;2.20;;;8.30;97.00;;;;;;5058585;28;20024;-48
2022/01/20 04:38:18;;;;;;;3.30;1.88;;;8.30;97.00;;;;;;5063019;28;20111;-48
2022/01/20 04:40:44;;;;;;;3.08;2.00;;;8.30;97.00;;;;;;5059504;28;20027;-48
2022/01/20 04:43:09;;;;;;;4.20;2.28;;;8.20;97.00;;;;;;5060547;28;20025;-49
2022/01/20 04:45:43;;;;;;;3.15;1.98;;;8.30;97.10;;;;;;5058942;28;20021;-48
2022/01/20 04:58:46;;;;;;;1.48;1.25;;;8.30;97.10;;;;;;5061584;28;20091;-48
2022/01/20 05:01:12;;;;;;;2.67;1.33;;;8.30;97.10;;;;;;5057561;28;20349;-48
2022/01/20 05:03:37;;;;;;;4.53;2.03;;;8.30;97.10;;;;;;5060121;28;20391;-49
2022/01/20 05:06:03;;;;;;;2.78;1.85;;;8.30;97.10;;;;;;5058252;28;20016;-48
2022/01/20 05:08:30;;;;;;;1.85;1.60;;;8.20;97.10;;;;;;5056420;28;20040;-48
2022/01/20 05:11:00;;;;;;;3.53;1.88;;;8.30;97.10;;;;;;5057635;28;20033;-48
2022/01/20 05:13:33;;;;;;;4.55;2.00;;;8.20;97.10;;;;;;5057167;28;20453;-48
2022/01/20 05:15:58;;;;;;;5.72;1.95;;;8.30;97.10;;;;;;5061903;28;20037;-48
2022/01/20 05:18:24;;;;;;;3.78;1.80;;;8.20;97.10;;;;;;5056385;28;20082;-48
2022/01/20 05:20:50;;;;;;;3.70;2.00;;;8.30;97.10;;;;;;5061520;28;20033;-49
2022/01/20 05:23:15;;;;;;;3.92;2.03;;;8.30;97.10;;;;;;5055648;28;20442;-48
2022/01/20 05:25:41;;;;;;;2.67;1.63;;;8.30;97.10;;;;;;5055258;28;20029;-48
2022/01/20 05:28:06;;;;;;;5.05;1.48;;;8.30;97.20;;;;;;5059945;28;20068;-48
2022/01/20 05:30:32;;;;;;;3.67;2.03;;;8.20;97.20;;;;;;5060782;28;20048;-48
2022/01/20 05:32:59;;;;;;;2.60;2.08;;;8.30;97.20;;;;;;5056140;28;20090;-48
2022/01/20 05:35:26;;;;;;;3.08;1.73;;;8.30;97.20;;;;;;5058912;28;20025;-48
2022/01/20 05:37:52;;;;;;;5.35;1.55;;;8.30;97.40;;;;;;5058898;28;20071;-48
2022/01/20 05:40:18;;;;;;;2.88;1.58;;;8.30;97.20;;;;;;5055712;28;20060;-49
2022/01/20 05:42:43;;;;;;;3.72;2.00;;;8.20;97.10;;;;;;5056227;28;20029;-48
2022/01/20 05:45:10;;;;;;;4.53;2.20;;;8.20;97.20;;;;;;5059213;28;20029;-48
2022/01/20 05:47:42;;;;;;;4.00;2.10;;;8.30;97.20;;;;;;5059087;28;20040;-48
2022/01/20 05:50:10;;;;;;;4.28;2.33;;;8.20;97.20;;;;;;5063459;28;20033;-48
2022/01/20 05:52:41;;;;;;;3.50;1.95;;;8.20;97.30;;;;;;5060407;28;20107;-48
2022/01/20 05:55:09;;;;;;;1.85;1.35;;;8.20;97.20;;;;;;5056826;28;20029;-48
2022/01/20 05:57:35;;;;;;;3.70;1.80;;;8.20;97.30;;;;;;5063421;28;20027;-48
2022/01/20 06:00:02;;;;;;;2.45;1.88;;;8.20;97.20;;;;;;5058718;28;20028;-48
2022/01/20 06:02:34;;;;;;;2.15;1.65;;;8.20;97.60;;;;;;5060231;28;20029;-48
2022/01/20 06:05:00;;;;;;;2.03;1.80;;;8.20;97.20;;;;;;5061796;28;20066;-48
2022/01/20 06:07:26;;;;;;;1.88;1.60;;;8.20;97.30;;;;;;5058959;28;20359;-48
2022/01/20 06:09:51;;;;;;;3.65;2.40;;;8.20;97.30;;;;;;5060671;28;20074;-48
2022/01/20 06:12:17;;;;;;;3.78;1.92;;;8.30;97.30;;;;;;5062478;28;20021;-48
2022/01/20 06:14:43;;;;;;;2.95;1.75;;;8.30;97.30;;;;;;5060443;28;20108;-48
2022/01/20 06:17:08;;;;;;;2.15;1.73;;;8.20;97.30;;;;;;5069627;28;20518;-48
2022/01/20 06:19:34;;;;;;;2.67;1.70;;;8.20;97.30;;;;;;5067036;28;20032;-48
2022/01/20 06:21:59;;;;;;;3.13;1.88;;;8.30;97.30;;;;;;5057077;28;20025;-48
2022/01/20 06:24:25;;;;;;;3.03;1.83;;;8.20;97.30;;;;;;5055425;28;20033;-48
2022/01/20 06:26:51;;;;;;;2.00;1.80;;;8.30;97.30;;;;;;5055947;28;20021;-48
2022/01/20 06:29:16;;;;;;;3.30;1.80;;;8.20;97.30;;;;;;5059021;28;20123;-51
2022/01/20 06:31:42;;;;;;;2.83;1.55;;;8.30;97.30;;;;;;5057688;28;20446;-48
2022/01/20 06:34:07;;;;;;;3.35;1.70;;;8.20;97.30;;;;;;5062822;28;20190;-47
2022/01/20 06:36:33;;;;;;;2.47;1.48;;;8.20;97.20;;;;;;5060864;28;20114;-48
2022/01/20 06:38:59;;;;;;;4.53;2.05;;;8.20;97.00;;;;;;5057877;28;20485;-47
2022/01/20 06:41:27;;;;;;;4.68;2.45;;;8.20;97.00;;;;;;5058543;28;20021;-47
2022/01/20 06:43:52;;;;;;;5.18;2.72;;;8.20;97.00;;;;;;5062006;28;20353;-47
2022/01/20 06:46:18;;;;;;;1.92;1.70;;;8.20;97.00;;;;;;5062201;28;20511;-47
2022/01/20 06:48:44;;;;;;;3.63;2.00;;;8.30;97.10;;;;;;5059786;28;20128;-48
2022/01/20 06:51:09;;;;;;;3.00;1.90;;;8.30;97.00;;;;;;5061824;28;20031;-47
2022/01/20 06:53:35;;;;;;;2.15;1.60;;;8.20;97.00;;;;;;5060548;28;20149;-48
2022/01/20 06:56:00;;;;;;;1.80;1.60;;;8.20;97.00;;;;;;5058355;28;20046;-47
2022/01/20 06:58:26;;;;;;;2.63;2.20;;;8.20;97.00;;;;;;5061776;28;20112;-47
2022/01/20 07:00:52;;;;;;;2.63;1.63;;;8.30;97.10;;;;;;5059796;28;20466;-47
2022/01/20 07:03:17;;;;;;;3.92;2.20;;;8.20;97.00;;;;;;5057280;28;20039;-48
2022/01/20 07:05:43;;;;;;;3.70;1.90;;;8.30;97.10;;;;;;5061147;28;20475;-48
2022/01/20 07:08:08;;;;;;;4.70;1.98;;;8.20;97.00;;;;;;5059605;28;20033;-48
2022/01/20 07:10:34;;;;;;;4.28;2.63;;;8.20;97.00;;;;;;5057598;28;20028;-48
2022/01/20 07:13:00;;;;;;;6.63;3.17;;;8.20;97.10;;;;;;5060839;28;20515;-47
2022/01/20 07:15:25;;;;;;;5.32;2.20;;;8.20;97.10;;;;;;5059573;28;20028;-48
2022/01/20 07:17:51;;;;;;;4.82;2.50;;;8.20;97.20;;;;;;5061110;28;20025;-48
2022/01/20 07:20:17;;;;;;;2.95;1.70;;;8.20;97.20;;;;;;5061553;28;20357;-48
2022/01/20 07:22:43;;;;;;;4.38;2.13;;;8.20;97.10;;;;;;5059149;28;20028;-48
2022/01/20 07:25:09;;;;;;;5.43;2.20;;;8.20;97.10;;;;;;5057254;28;20021;-47
2022/01/20 07:27:34;;;;;;;4.90;2.10;;;8.20;97.10;;;;;;5059484;28;20472;-47
2022/01/20 07:30:00;;;;;;;3.88;2.55;;;8.30;97.20;;;;;;5059118;28;20047;-47
2022/01/20 07:32:26;;;;;;;3.45;1.80;;;8.20;97.20;;;;;;5059691;28;20020;-47
2022/01/20 07:34:52;;;;;;;4.45;2.35;;;8.30;97.20;;;;;;5061839;28;20078;-48
2022/01/20 07:37:17;;;;;;;2.92;1.90;;;8.20;97.20;;;;;;5060078;28;20029;-48
2022/01/20 07:39:43;;;;;;;4.22;2.28;;;8.30;97.20;;;;;;5055759;28;20036;-47
2022/01/20 07:42:09;;;;;;;2.20;1.70;;;8.20;97.20;;;;;;5058250;28;20025;-47
2022/01/20 07:44:34;;;;;;;2.58;1.63;;;8.20;97.20;;;;;;5061186;28;20407;-48
2022/01/20 07:47:00;;;;;;;2.60;2.15;;;8.30;97.30;;;;;;5060582;28;20059;-47
2022/01/20 07:49:27;;;;;;;2.40;1.77;;;8.30;97.30;;;;;;5059703;28;20033;-48
2022/01/20 07:51:53;;;;;;;4.18;1.80;;;8.20;97.20;;;;;;5060335;28;20028;-47
2022/01/20 07:54:20;;;;;;;3.40;1.85;;;8.30;97.30;;;;;;5057795;28;20112;-48
2022/01/20 07:56:48;;;;;;;3.60;2.45;;;8.30;97.30;;;;;;5059718;28;20061;-47
2022/01/20 07:59:14;;;;;;;4.38;1.85;;;8.30;97.30;;;;;;5060033;28;20036;-48
2022/01/20 08:01:40;;;;;;;3.13;2.15;;;8.30;97.30;;;;;;5060805;28;20033;-48
2022/01/20 08:04:06;;;;;;;4.68;2.85;;;8.20;97.30;;;;;;5056202;28;20481;-48
2022/01/20 08:06:31;;;;;;;5.68;2.42;;;8.20;97.30;;;;;;5059838;28;20074;-47
2022/01/20 08:08:57;;;;;;;6.30;2.70;;;8.30;97.40;;;;;;5064514;28;20024;-47
2022/01/20 08:11:22;;;;;;;5.88;3.03;;;8.30;97.30;;;;;;5059264;28;20029;-47
2022/01/20 08:13:48;;;;;;;4.68;1.90;;;8.30;97.40;;;;;;5063308;28;20357;-48
2022/01/20 08:16:14;;;;;;;3.28;1.63;;;8.30;97.40;;;;;;5065753;28;20509;-47
2022/01/20 08:18:39;;;;;;;1.95;1.10;;;8.30;97.40;;;;;;5064345;28;20037;-47
2022/01/20 08:21:05;;;;;;;1.65;0.93;;;8.30;97.40;;;;;;5063240;28;20025;-48
2022/01/20 08:23:31;;;;;;;1.73;0.85;;;8.30;97.40;;;;;;5064412;28;20640;-48
2022/01/20 08:25:56;;;;;;;0.73;0.73;;;8.30;97.40;;;;;;5060095;28;20372;-47
2022/01/20 08:28:23;;;;;;;2.63;1.08;;;8.30;97.40;;;;;;5062788;28;20039;-48
2022/01/20 08:30:49;;;;;;;2.78;1.05;;;8.30;97.50;;;;;;5064762;28;20039;-48
2022/01/20 08:33:15;;;;;;;1.83;0.95;;;8.20;97.40;;;;;;5063818;28;20028;-48
2022/01/20 08:35:41;;;;;;;3.40;1.38;;;8.30;97.50;;;;;;5062584;28;20040;-47
2022/01/20 08:38:07;;;;;;;1.77;1.05;;;8.30;97.50;;;;;;5064309;28;20111;-48
2022/01/20 08:40:35;;;;;;;2.17;1.23;;;8.30;97.40;;;;;;5058051;28;20033;-47
2022/01/20 08:43:01;;;;;;;2.05;1.30;;;8.30;97.50;;;;;;5062088;28;20060;-47
2022/01/20 08:45:32;;;;;;;1.42;1.33;;;8.30;97.50;;;;;;5063252;28;20122;-47
2022/01/20 08:47:59;;;;;;;1.42;1.20;;;8.30;97.50;;;;;;5065304;28;20086;-48
2022/01/20 08:50:28;;;;;;;1.60;1.17;;;8.30;97.50;;;;;;5063839;28;20028;-47
2022/01/20 08:52:55;;;;;;;1.73;0.90;;;8.30;97.50;;;;;;5061947;28;20385;-47
2022/01/20 08:55:21;;;;;;;2.33;1.27;;;8.30;97.50;;;;;;5059623;28;20366;-47
2022/01/20 08:57:47;;;;;;;0.85;0.70;;;8.30;97.50;;;;;;5064752;28;20024;-48
2022/01/20 09:00:14;;;;;;;4.85;1.58;;;8.30;97.60;;;;;;5062161;28;20021;-48
2022/01/20 09:02:39;;;;;;;1.42;1.15;;;8.30;97.60;;;;;;5058230;28;20037;-48
2022/01/20 09:05:05;;;;;;;1.25;1.10;;;8.30;97.50;;;;;;5064488;28;20036;-48
2022/01/20 09:07:31;;;;;;;2.25;1.42;;;8.30;97.60;;;;;;5062603;28;20021;-48
2022/01/20 09:10:00;;;;;;;4.05;1.55;;;8.30;97.60;;;;;;5062239;28;20480;-48
2022/01/20 09:17:47;;;;;;;1.98;1.23;;;8.30;97.60;;;;;;5063401;28;20032;-48
2022/01/20 09:20:12;;;;;;;1.02;0.90;;;8.40;97.70;;;;;;5061038;28;20021;-48
2022/01/20 09:22:38;;;;;;;2.60;1.00;;;8.30;97.70;;;;;;5061838;28;20029;-48
2022/01/20 09:25:06;;;;;;;3.38;0.80;;;8.30;97.70;;;;;;5061318;28;20139;-47
2022/01/20 09:27:32;;;;;;;1.35;0.80;;;8.30;97.80;;;;;;5060141;28;20067;-47
2022/01/20 09:29:58;;;;;;;1.90;1.02;;;8.30;97.70;;;;;;5064437;28;20060;-48
2022/01/20 09:32:26;;;;;;;6.93;1.00;;;8.30;97.70;;;;;;5060864;28;20396;-48
2022/01/20 09:34:52;;;;;;;3.15;1.00;;;8.30;97.80;;;;;;5062575;28;20112;-48
2022/01/20 09:37:17;;;;;;;3.60;1.05;;;8.40;97.90;;;;;;5063927;28;20175;-47
2022/01/20 09:39:45;;;;;;;5.15;1.13;;;8.30;97.90;;;;;;5062116;28;20025;-48
2022/01/20 09:42:11;;;;;;;2.17;0.77;;;8.40;98.10;;;;;;5056150;28;20029;-48
2022/01/20 09:44:46;;;;;;;0.93;0.73;;;8.40;98.40;;;;;;5064008;28;20031;-47
2022/01/20 09:47:12;;;;;;;9.15;1.70;;;8.40;98.10;;;;;;5064010;28;20021;-48
2022/01/20 09:49:38;;;;;;;10.35;1.50;;;8.40;98.10;;;;;;5061313;28;20036;-48
2022/01/20 09:52:04;;;;;;;3.08;0.70;;;8.40;98.00;;;;;;5061496;28;20021;-48
2022/01/20 09:54:31;;;;;;;3.72;1.27;;;8.40;98.00;;;;;;5064004;28;20357;-47
2022/01/20 09:56:58;;;;;;;2.28;0.95;;;8.40;98.10;;;;;;5056483;28;20036;-48
2022/01/20 09:59:24;;;;;;;3.97;1.20;;;8.40;98.10;;;;;;5063438;28;20033;-48
2022/01/20 10:01:56;;;;;;;5.18;0.90;;;8.40;98.10;;;;;;5059269;28;20202;-48
2022/01/20 10:04:26;;;;;;;5.07;1.75;;;8.40;98.00;;;;;;5059416;28;20064;-48
2022/01/20 10:07:01;;;;;;;7.15;1.45;;;8.40;98.00;;;;;;5061217;28;20029;-47
2022/01/20 10:09:39;;;;;;;8.13;1.02;;;8.40;98.10;;;;;;5060652;28;20040;-48
2022/01/20 10:12:08;;;;;;;8.52;1.30;;;8.40;98.00;;;;;;5056334;28;20037;-47
2022/01/20 10:14:54;;;;;;;4.40;1.05;;;8.50;98.10;;;;;;5056757;28;20032;-48
2022/01/20 10:17:22;;;;;;;4.05;1.23;;;8.50;98.00;;;;;;5062010;28;20033;-48
2022/01/20 10:19:57;;;;;;;4.15;1.23;;;8.50;98.10;;;;;;5060978;28;20024;-47
2022/01/20 10:22:23;;;;;;;4.20;1.15;;;8.50;98.10;;;;;;5060678;28;20116;-48
2022/01/20 10:25:12;;;;;;;8.43;1.77;;;8.50;98.10;;;;;;5060583;28;20033;-48
2022/01/20 10:27:50;;;;;;;6.30;1.02;;;8.50;98.00;;;;;;5054553;28;20243;-47
2022/01/20 10:30:16;;;;;;;1.13;1.00;;;8.50;97.90;;;;;;5058433;28;20029;-47
2022/01/20 10:32:48;;;;;;;2.38;0.93;;;8.50;97.90;;;;;;5060731;28;20027;-47
2022/01/20 10:35:16;;;;;;;12.05;2.15;;;8.50;98.00;;;;;;5061162;28;20411;-48
2022/01/20 10:38:11;;;;;;;2.03;0.82;;;8.50;98.00;;;;;;5058956;28;20442;-48
2022/01/20 10:40:50;;;;;;;2.80;1.30;;;8.50;98.00;;;;;;5058791;28;20021;-48
2022/01/20 10:43:35;;;;;;;4.03;1.10;;;8.50;98.10;;;;;;5060900;28;20401;-48
2022/01/20 10:46:11;;;;;;;0.70;0.70;;;8.50;98.00;;;;;;5062234;28;20111;-48
2022/01/20 10:48:37;;;;;;;5.57;0.80;;;8.60;97.90;;;;;;5060882;28;20033;-48
2022/01/20 10:51:18;;;;;;;2.80;1.48;;;8.60;97.90;;;;;;5060708;28;20099;-49
2022/01/20 10:53:43;;;;;;;3.63;1.20;;;8.60;98.00;;;;;;5061995;28;20166;-48
2022/01/20 10:56:09;;;;;;;1.40;0.73;;;8.60;98.00;;;;;;5057802;28;20128;-47
2022/01/20 10:58:35;;;;;;;3.25;1.40;;;8.60;97.90;;;;;;5060627;28;20021;-47
2022/01/20 11:01:00;;;;;;;0.88;0.88;;;8.60;98.00;;;;;;5060607;28;20362;-48
2022/01/20 11:03:27;;;;;;;2.30;1.00;;;8.60;97.90;;;;;;5057809;28;20052;-49
2022/01/20 11:05:54;;;;;;;1.55;1.10;;;8.60;98.00;;;;;;5061052;28;20025;-48
2022/01/20 11:08:21;;;;;;;2.35;0.90;;;8.60;97.90;;;;;;5059787;28;20048;-48
2022/01/20 11:10:50;;;;;;;2.85;1.13;;;8.60;97.80;;;;;;5057997;28;20068;-48
2022/01/20 11:13:17;;;;;;;2.90;1.02;;;8.60;98.00;;;;;;5056981;28;20111;-48
2022/01/20 11:15:44;;;;;;;11.00;1.58;;;8.60;97.90;;;;;;5059855;28;20036;-48
2022/01/20 11:18:10;;;;;;;6.78;1.25;;;8.60;97.90;;;;;;5061160;28;20108;-48
2022/01/20 11:20:44;;;;;;;6.85;1.38;;;8.60;97.90;;;;;;5061921;28;20020;-48
2022/01/20 11:23:09;;;;;;;2.53;1.05;;;8.60;98.00;;;;;;5060482;28;20120;-48
2022/01/20 11:25:39;;;;;;;2.85;1.58;;;8.60;98.30;;;;;;5059724;28;20053;-47
2022/01/20 11:28:17;;;;;;;3.53;1.20;;;8.60;98.00;;;;;;5056840;28;20033;-48
2022/01/20 11:30:58;;;;;;;1.33;1.00;;;8.60;98.00;;;;;;5059796;28;20031;-48
2022/01/20 11:33:41;;;;;;;2.22;1.05;;;8.60;98.00;;;;;;5058596;28;20446;-48
2022/01/20 11:36:20;;;;;;;5.18;1.23;;;8.60;98.00;;;;;;5059153;28;20485;-48
2022/01/20 11:38:49;;;;;;;0.20;0.20;;;8.60;98.30;;;;;;5059627;28;20044;-48
2022/01/20 11:41:21;;;;;;;2.75;1.05;;;8.70;97.80;;;;;;5059250;28;20175;-48
2022/01/20 11:43:51;;;;;;;1.95;1.13;;;8.70;97.90;;;;;;5057805;28;20107;-48
2022/01/20 11:46:25;;;;;;;1.92;1.20;;;8.70;97.80;;;;;;5060908;28;20606;-48
2022/01/20 11:49:02;;;;;;;2.10;0.65;;;8.70;97.90;;;;;;5059361;28;20052;-48
2022/01/20 11:51:48;;;;;;;4.43;1.70;;;8.70;97.90;;;;;;5058836;28;20029;-47
2022/01/20 11:54:30;;;;;;;2.42;1.00;;;8.70;98.00;;;;;;5059158;28;20059;-47
2022/01/20 11:57:13;;;;;;;2.55;1.15;;;8.70;97.90;;;;;;5054759;28;20021;-48
2022/01/20 11:59:44;;;;;;;1.33;1.20;;;8.70;98.00;;;;;;5061948;28;20051;-47
2022/01/20 12:02:33;;;;;;;4.70;1.50;;;8.70;98.00;;;;;;5056857;28;20048;-48
2022/01/20 12:05:00;;;;;;;5.68;1.58;;;8.70;98.00;;;;;;5061605;28;20043;-47
2022/01/20 12:07:32;;;;;;;4.30;1.33;;;8.70;98.00;;;;;;5058868;28;20044;-48
2022/01/20 12:10:11;;;;;;;2.80;1.08;;;8.70;98.00;;;;;;5059770;28;20061;-48
2022/01/20 12:12:39;;;;;;;3.17;1.00;;;8.70;97.90;;;;;;5056093;28;20116;-48
2022/01/20 12:15:16;;;;;;;6.57;1.52;;;8.70;97.90;;;;;;5059138;28;20067;-48
2022/01/20 12:17:55;;;;;;;3.80;1.38;;;8.70;98.00;;;;;;5059455;28;20025;-47
2022/01/20 12:20:23;;;;;;;7.20;2.10;;;8.70;98.00;;;;;;5059919;28;20361;-48
2022/01/20 12:22:50;;;;;;;6.90;1.40;;;8.70;98.00;;;;;;5060575;28;20035;-47
2022/01/20 12:25:26;;;;;;;1.63;1.25;;;8.70;98.00;;;;;;5060600;28;20128;-48
2022/01/20 12:28:05;;;;;;;3.35;0.93;;;8.70;97.90;;;;;;5054741;28;20061;-48
2022/01/20 12:30:32;;;;;;;5.07;1.45;;;8.70;97.90;;;;;;5059347;28;20032;-48
2022/01/20 12:33:14;;;;;;;1.50;1.17;;;8.70;98.00;;;;;;5059827;28;20029;-48
2022/01/20 12:35:42;;;;;;;6.50;1.20;;;8.70;97.90;;;;;;5060073;28;20033;-48
2022/01/20 12:38:16;;;;;;;2.50;1.50;;;8.70;97.90;;;;;;5058220;28;20051;-48
2022/01/20 12:40:42;;;;;;;2.63;1.42;;;8.70;97.90;;;;;;5059645;28;20028;-47
2022/01/20 12:43:08;;;;;;;6.28;1.55;;;8.70;97.80;;;;;;5056519;28;20048;-48
2022/01/20 12:48:18;;;;;;;4.57;1.38;;;8.70;97.90;;;;;;5059487;28;20471;-48
2022/01/20 12:51:10;;;;;;;1.75;1.40;;;8.70;97.80;;;;;;5059317;28;20063;-48
2022/01/20 12:53:43;;;;;;;1.20;1.10;;;8.70;97.90;;;;;;5060912;28;20033;-47
2022/01/20 12:56:11;;;;;;;3.40;1.20;;;8.70;97.80;;;;;;5064533;28;20170;-48
2022/01/20 12:58:49;;;;;;;5.28;1.40;;;8.70;97.80;;;;;;5057652;28;20025;-48
2022/01/20 13:01:15;;;;;;;2.05;1.35;;;8.70;97.70;;;;;;5062613;28;20200;-48
2022/01/20 13:03:42;;;;;;;7.35;1.40;;;8.70;97.70;;;;;;5062043;28;20032;-49
2022/01/20 13:06:19;;;;;;;7.63;1.88;;;8.80;97.70;;;;;;5063146;28;20060;-48
2022/01/20 13:09:05;;;;;;;3.22;1.63;;;8.80;98.10;;;;;;5062652;28;20190;-48
2022/01/20 13:11:40;;;;;;;10.80;1.95;;;8.80;97.80;;;;;;5063067;28;20035;-48
2022/01/20 13:14:06;;;;;;;2.25;1.20;;;8.70;97.90;;;;;;5058707;28;20074;-47
2022/01/20 13:16:33;;;;;;;3.35;1.50;;;8.80;97.90;;;;;;5062955;28;20067;-48
2022/01/20 13:19:01;;;;;;;3.72;1.77;;;8.80;98.00;;;;;;5064322;28;20040;-48
2022/01/20 13:21:54;;;;;;;6.53;1.50;;;8.80;98.00;;;;;;5062408;28;20029;-48
2022/01/20 13:24:28;;;;;;;5.55;1.25;;;8.80;98.00;;;;;;5064829;28;20155;-48
2022/01/20 13:26:55;;;;;;;2.22;1.13;;;8.80;98.10;;;;;;5061970;28;20029;-48
2022/01/20 13:29:23;;;;;;;3.63;0.93;;;8.80;98.20;;;;;;5060542;28;20071;-48
2022/01/20 13:31:56;;;;;;;1.63;0.95;;;8.80;98.30;;;;;;5061912;28;20033;-48
2022/01/20 13:34:22;;;;;;;1.40;1.02;;;8.80;98.30;;;;;;5061736;28;20029;-47
2022/01/20 13:36:53;;;;;;;2.80;1.17;;;8.70;98.30;;;;;;5063688;28;20020;-47
2022/01/20 13:39:29;;;;;;;5.88;1.02;;;8.80;98.30;;;;;;5064070;28;20036;-48
2022/01/20 13:42:24;;;;;;;2.83;1.45;;;8.70;98.30;;;;;;5062237;28;20342;-47
2022/01/20 13:45:13;;;;;;;4.95;0.93;;;8.70;98.30;;;;;;5064006;28;20028;-48
2022/01/20 13:47:54;;;;;;;0.93;0.70;;;8.70;98.30;;;;;;5062064;28;20029;-47
2022/01/20 13:50:32;;;;;;;2.08;1.00;;;8.70;98.30;;;;;;5061621;28;20086;-47
2022/01/20 13:52:59;;;;;;;6.38;1.30;;;8.70;98.20;;;;;;5060490;28;20021;-48
2022/01/20 13:55:32;;;;;;;1.90;0.77;;;8.70;98.30;;;;;;5062593;28;20025;-48
2022/01/20 13:58:00;;;;;;;1.25;0.55;;;8.70;98.20;;;;;;5059527;28;20102;-48
2022/01/20 14:00:29;;;;;;;0.50;0.50;;;8.70;98.20;;;;;;5062232;28;20031;-47
2022/01/20 14:02:55;;;;;;;0.65;0.50;;;8.70;98.10;;;;;;5056316;28;20021;-49
2022/01/20 14:05:26;;;;;;;2.33;0.80;;;8.70;98.10;;;;;;5062597;28;20040;-47
2022/01/20 14:07:52;;;;;;;0.90;0.65;;;8.70;98.10;;;;;;5063506;28;20068;-48
2022/01/20 14:10:18;;;;;;;0.50;0.50;;;8.70;98.10;;;;;;5061418;28;20048;-47